Norfolk International Airport
KORF : now visible

Airfield :











YOU CAN JOIN US ON...

 
LOGIN :

Register | Disclaimer

   EN    FR    IT 

 









Legend :    VFR   Marginal VFR   IFR   Intensive IFR   Very Intensive IFR
Visi :
Ceiling :
>= 8 km
>= 3000ft
5 to 8 km
1000 to 3000 ft
1500m to 5 km
500 to 1000 ft
800 to 1500m
200 to 500 ft
< 800m
< 200 ft
Symbols :   Thunderstorms  Fog  Heavy snow  Heavy precipitations  Wind > 20 kt






- Airport Elevation : 26 ft
- IATA code : ORF


KORF - Norfolk International

CURRENT METAR :
  • 220051Z 16003KT 10SM CLR 21/18 A3023 RMK AO2 SLP237 T02060183

EXPIRED METARs :
  • 212351Z 00000KT 10SM CLR 22/18 A3023 RMK AO2 SLP237 T02220183 10272 20217 53008
  • 212251Z 00000KT 10SM CLR 22/18 A3021 RMK AO2 SLP231 T02220178

TAF KORF
Valid from the 22 at 00:00 until the 23 at 00:00 UTC


212339Z 2200/2224 00000KT P6SM SKC
TEMPO 2203/2205 4SM BR
FM220500 00000KT 4SM BR SCT020
FM220800 00000KT 1SM BR SCT002 BKN005
FM221400 VRB05KT P6SM BKN035
FM221600 05006KT P6SM SCT040
KZDC FIR / North America



MET'MAP, your aeronautical weather chart ! - Copyright ORBIFLY December 2007 - Disclaimer

ORBIFLY MET'MAP TEAM :

Programming & Development : Alexandra Zaïnal
Concept & original design : Baudouin d'Aumeries
Assistance for programming : Marc-Olivier Méhu
Technical & hardware support : Manuel Goepfert

Contact : metmap@orbifly.com




SOURCES & CREDITS :

   NOAA       Earth
Advisory